Paraopeba, Brazil
Current Conditions -  °F | °C
As of 10:00 PM on Sunday 25 Jan 2015 (Local Time) from SBLS Reporting Station
Thunderstorm Thunderstorm  
Wind Chill: 70°   Ceiling: Unl
Heat Index: 70°   Visibility: 6mi
Dew Point: 64°   Wind: 5mph
Humidity: 83%   Direction: 170°S
Pressure: NA   Gusts: NA
Location:  19.27°S, 44.4°W
Report Text: SBLS 260000Z 17004KT 150V220 9999 VCTS FEW050CB SCT100 21/18 Q1019
Loading
Personal Weather Stations






























Interactive Weather Map New forecast layout! Learn more

10-Day Weather Forecast

Advertisements
Track Severe Weather on mobile